This is the latest recevied weather packets stored in our database for station/object KM6RDV. If no packets are shown the sender has not sent any weather packets the latest 10 day(s).
| Time | Temp. | Humidity | Pressure | Rain* | Wind** | Luminosity | Snow |
|---|---|---|---|---|---|---|---|
| 1777755622 | 16.67° C | 65% | 1016.6 hPa | 0 mm | - | 856 W/m² | - |
| 1777755019 | 16.67° C | 65% | 1016.8 hPa | 0 mm | - | 775 W/m² | - |
| 1777753819 | 16.11° C | 66% | 1016.9 hPa | 0 mm | - | 926 W/m² | - |
| 1777752619 | 16.11° C | 67% | 1017.2 hPa | 0 mm | - | 569 W/m² | - |
| 1777750817 | 15.56° C | 71% | 1017.3 hPa | 0 mm | - | 299 W/m² | - |
| 1777742434 | 13.89° C | 80% | 1017.1 hPa | 0 mm | - | 167 W/m² | - |
| 1777741839 | 13.89° C | 80% | 1017.3 hPa | 0 mm | - | 119 W/m² | - |
| 1777733418 | 13.33° C | 82% | 1016.5 hPa | 0 mm | - | 37 W/m² | - |
| 1777732819 | 13.33° C | 82% | 1016.5 hPa | 0 mm | - | 38 W/m² | - |
| 1777731616 | 13.33° C | 81% | 1016.3 hPa | 0 mm | - | 32 W/m² | - |
| 1777726820 | 12.78° C | 81% | 1015.7 hPa | 0 mm | - | 0 W/m² | - |
| 1777725018 | 12.78° C | 81% | 1015.7 hPa | 0 mm | - | 0 W/m² | - |
| 1777724421 | 12.78° C | 81% | 1015.6 hPa | 0 mm | - | 0 W/m² | - |
| 1777723821 | 12.78° C | 81% | 1015.7 hPa | 0 mm | - | 0 W/m² | - |
| 1777722620 | 12.78° C | 81% | 1015.7 hPa | 0 mm | - | 0 W/m² | - |
| 1777721418 | 12.78° C | 81% | 1015.8 hPa | 0 mm | - | 0 W/m² | - |
| 1777716616 | 13.33° C | 79% | 1016 hPa | 0 mm | - | - | - |
| 1777714840 | 13.33° C | 80% | 1016.3 hPa | 0 mm | - | 0 W/m² | - |
| 1777714231 | 13.33° C | 81% | 1016.4 hPa | 0 mm | - | - | - |
| 1777713024 | 12.78° C | 81% | 1016.6 hPa | 0 mm | - | - | - |
| 1777711827 | 12.78° C | 81% | 1016.8 hPa | 0 mm | - | - | - |
| 1777707021 | 13.33° C | 79% | 1016.8 hPa | 0 mm | - | 0 W/m² | - |
| 1777705840 | 13.33° C | 80% | 1016.7 hPa | 0 mm | - | 0 W/m² | - |
| 1777702817 | 12.78° C | 81% | 1017 hPa | 0 mm | - | 0 W/m² | - |
| 1777701621 | 13.33° C | 80% | 1017 hPa | 0 mm | - | 0 W/m² | - |
* Rain latest hour (hover to see other rain measurements)
** Current wind speed in m/s (hover to see current wind gust speed)